Time;durP1;ratioP1;P1;durP2;ratioP2;P2;SDS_P1;SDS_P2;PMS_P1;PMS_P2;Temp;Humidity;BMP_temperature;BMP_pressure;BME280_temperature;BME280_humidity;BME280_pressure;Samples;Min_cycle;Max_cycle;Signal;HPM_P1;HPM_P2
2023/11/19 00:02:24;;;;;;;;;;;6.60;99.90;;;;;;21141858;28;19969;-85
2023/11/19 00:12:24;;;;;;;;;;;6.40;99.90;;;;;;21140870;28;19912;-86
2023/11/19 00:22:25;;;;;;;;;;;6.20;99.90;;;;;;21156696;28;19953;-84
2023/11/19 00:32:26;;;;;;;;;;;6.30;99.90;;;;;;21140136;28;20053;-85
2023/11/19 00:42:27;;;;;;;;;;;6.40;99.90;;;;;;21174813;28;19922;-85
2023/11/19 00:52:27;;;;;;;;;;;6.30;99.90;;;;;;21138935;28;19919;-86
2023/11/19 01:02:28;;;;;;;;;;;6.30;99.90;;;;;;21142472;28;19915;-86
2023/11/19 01:12:31;;;;;;;;;;;6.30;99.90;;;;;;21139479;28;19919;-86
2023/11/19 01:22:31;;;;;;;;;;;6.50;99.90;;;;;;21135047;28;19915;-84
2023/11/19 01:32:32;;;;;;;;;;;6.50;99.90;;;;;;21150606;28;19930;-85
2023/11/19 01:42:39;;;;;;;;;;;6.50;99.90;;;;;;21151435;28;19916;-85
2023/11/19 01:52:43;;;;;;;;;;;6.50;99.90;;;;;;21137088;28;19920;-85
2023/11/19 02:02:47;;;;;;;;;;;6.60;99.90;;;;;;21169088;28;19966;-85
2023/11/19 02:12:48;;;;;;;;;;;6.50;99.90;;;;;;21150778;28;19911;-86
2023/11/19 02:22:52;;;;;;;;;;;6.60;99.90;;;;;;21134005;28;19994;-85
2023/11/19 02:32:54;;;;;;;;;;;6.60;99.90;;;;;;21133656;28;19920;-84
2023/11/19 02:42:55;;;;;;;;;;;6.60;99.90;;;;;;21134366;28;19923;-86
2023/11/19 02:52:56;;;;;;;;;;;6.70;99.90;;;;;;21134022;28;19919;-86
2023/11/19 03:03:05;;;;;;;;;;;6.70;99.90;;;;;;21132768;28;19947;-85
2023/11/19 03:13:11;;;;;;;;;;;6.60;99.90;;;;;;21168060;28;20022;-85
2023/11/19 03:23:12;;;;;;;;;;;6.60;99.90;;;;;;21152274;28;19928;-85
2023/11/19 03:33:13;;;;;;;;;;;6.70;99.90;;;;;;21150119;28;19912;-86
2023/11/19 03:43:13;;;;;;;;;;;6.80;99.90;;;;;;21144231;28;19923;-84
2023/11/19 03:53:14;;;;;;;;;;;6.80;99.90;;;;;;21141503;28;19918;-86
2023/11/19 04:03:15;;;;;;;;;;;6.90;99.90;;;;;;21140190;28;19915;-86
2023/11/19 04:13:15;;;;;;;;;;;6.80;99.90;;;;;;21140229;28;19965;-86
2023/11/19 04:23:16;;;;;;;;;;;6.70;99.90;;;;;;21173074;28;19970;-84
2023/11/19 04:33:17;;;;;;;;;;;6.80;99.90;;;;;;21156465;28;19918;-82
2023/11/19 04:43:19;;;;;;;;;;;6.80;99.90;;;;;;21137173;28;19923;-82
2023/11/19 04:53:20;;;;;;;;;;;6.90;99.90;;;;;;21153944;28;20291;-84
2023/11/19 05:03:20;;;;;;;;;;;7.10;99.90;;;;;;21152437;28;20291;-83
2023/11/19 05:13:22;;;;;;;;;;;7.00;99.90;;;;;;21150337;28;19954;-84
2023/11/19 05:23:22;;;;;;;;;;;6.90;99.90;;;;;;21171231;28;19958;-82
2023/11/19 05:33:23;;;;;;;;;;;7.00;99.90;;;;;;21151551;28;19912;-84
2023/11/19 05:43:24;;;;;;;;;;;7.10;99.90;;;;;;21133066;28;19916;-84
2023/11/19 05:53:24;;;;;;;;;;;7.10;99.90;;;;;;21150064;28;19919;-83
2023/11/19 06:03:25;;;;;;;;;;;7.20;99.90;;;;;;21167000;28;19926;-83
2023/11/19 06:13:26;;;;;;;;;;;7.20;99.90;;;;;;21147900;28;20062;-83
2023/11/19 06:23:27;;;;;;;;;;;7.30;99.90;;;;;;21167032;28;19916;-81
2023/11/19 06:33:27;;;;;;;;;;;7.20;99.90;;;;;;21166803;28;19912;-80
2023/11/19 06:43:28;;;;;;;;;;;7.20;99.90;;;;;;21131211;28;19999;-81
2023/11/19 06:53:29;;;;;;;;;;;7.60;99.90;;;;;;21133261;28;20386;-82
2023/11/19 07:03:30;;;;;;;;;;;8.20;99.90;;;;;;21166333;28;19982;-83
2023/11/19 07:13:31;;;;;;;;;;;8.50;99.90;;;;;;21168012;28;19912;-83
2023/11/19 07:23:33;;;;;;;;;;;8.60;99.90;;;;;;21151528;28;19916;-83
2023/11/19 07:33:33;;;;;;;;;;;8.60;99.90;;;;;;21136446;28;19966;-81
2023/11/19 07:43:34;;;;;;;;;;;8.80;99.90;;;;;;21146531;28;19919;-82
2023/11/19 07:53:35;;;;;;;;;;;8.90;99.90;;;;;;21148835;28;19912;-82
2023/11/19 08:03:35;;;;;;;;;;;9.30;99.90;;;;;;21156037;28;19962;-82
2023/11/19 08:13:36;;;;;;;;;;;9.60;99.90;;;;;;21138945;28;19912;-82
2023/11/19 08:23:37;;;;;;;;;;;10.10;99.90;;;;;;21153838;28;20375;-84
2023/11/19 08:33:38;;;;;;;;;;;10.30;99.90;;;;;;21162590;27;19994;-85
2023/11/19 08:43:40;;;;;;;;;;;10.40;99.90;;;;;;21145235;27;19923;-85
2023/11/19 08:53:40;;;;;;;;;;;10.10;99.90;;;;;;21161475;27;20367;-86
2023/11/19 09:03:41;;;;;;;;;;;11.00;99.90;;;;;;21152776;27;20328;-86
2023/11/19 09:13:42;;;;;;;;;;;11.00;99.90;;;;;;21185766;27;19935;-87
2023/11/19 09:23:43;;;;;;;;;;;10.60;99.90;;;;;;21153333;27;20002;-86
2023/11/19 09:33:47;;;;;;;;;;;10.40;99.90;;;;;;21144217;27;20632;-87
2023/11/19 09:43:48;;;;;;;;;;;10.50;99.90;;;;;;21150344;27;20004;-87
2023/11/19 09:53:49;;;;;;;;;;;10.70;99.90;;;;;;21136067;27;19912;-87
2023/11/19 10:03:50;;;;;;;;;;;10.80;99.90;;;;;;21173119;27;19919;-86
2023/11/19 10:13:52;;;;;;;;;;;11.00;99.90;;;;;;21153373;27;19957;-86
2023/11/19 10:23:53;;;;;;;;;;;11.20;99.90;;;;;;21131722;28;20041;-85
2023/11/19 10:33:54;;;;;;;;;;;11.30;99.90;;;;;;21132229;28;19946;-86
2023/11/19 10:43:55;;;;;;;;;;;11.40;99.90;;;;;;21144741;27;19939;-87
2023/11/19 10:53:59;;;;;;;;;;;11.50;99.90;;;;;;21136038;28;19911;-87
2023/11/19 11:04:00;;;;;;;;;;;11.70;99.90;;;;;;21130012;28;19923;-88
2023/11/19 11:14:04;;;;;;;;;;;11.80;99.90;;;;;;21147007;28;19916;-88
2023/11/19 11:24:11;;;;;;;;;;;11.80;99.90;;;;;;21160400;27;20402;-88
2023/11/19 11:34:32;;;;;;;;;;;12.10;99.90;;;;;;21144291;28;19912;-88
2023/11/19 11:44:52;;;;;;;;;;;12.30;99.90;;;;;;21123665;27;19920;-88
2023/11/19 11:54:52;;;;;;;;;;;12.60;99.90;;;;;;21146363;27;20008;-88
2023/11/19 12:04:53;;;;;;;;;;;12.70;99.90;;;;;;21143470;27;19963;-87
2023/11/19 12:15:10;;;;;;;;;;;12.70;99.90;;;;;;21152218;27;20294;-88
2023/11/19 12:25:14;;;;;;;;;;;12.80;99.90;;;;;;21155368;27;19915;-88
2023/11/19 12:35:14;;;;;;;;;;;12.80;99.90;;;;;;21135487;27;19923;-88
2023/11/19 12:45:16;;;;;;;;;;;12.90;99.90;;;;;;21178747;27;19916;-88
2023/11/19 12:55:27;;;;;;;;;;;12.90;99.90;;;;;;21136499;27;20363;-86
2023/11/19 13:05:27;;;;;;;;;;;13.00;99.90;;;;;;21173345;27;20430;-87
2023/11/19 13:15:28;;;;;;;;;;;13.10;99.90;;;;;;21138890;27;20394;-86
2023/11/19 13:25:29;;;;;;;;;;;13.20;99.90;;;;;;21168675;27;19920;-86
2023/11/19 13:35:30;;;;;;;;;;;13.80;99.90;;;;;;21148693;27;19961;-85
2023/11/19 13:45:31;;;;;;;;;;;13.80;99.90;;;;;;21174235;27;19915;-86
2023/11/19 13:55:31;;;;;;;;;;;13.70;99.90;;;;;;21138919;27;19911;-86
2023/11/19 14:05:32;;;;;;;;;;;13.70;99.90;;;;;;21184426;27;20393;-86
2023/11/19 14:15:35;;;;;;;;;;;13.70;99.90;;;;;;21119212;27;22281;-86
2023/11/19 14:25:36;;;;;;;;;;;14.00;99.90;;;;;;21185071;27;19958;-86
2023/11/19 14:35:37;;;;;;;;;;;13.80;99.90;;;;;;21125746;27;19923;-86
2023/11/19 14:45:38;;;;;;;;;;;13.40;99.90;;;;;;21139281;27;19916;-86
2023/11/19 14:55:38;;;;;;;;;;;13.20;99.90;;;;;;21170560;28;19919;-88
2023/11/19 15:05:39;;;;;;;;;;;13.00;99.90;;;;;;21157051;27;19923;-89
2023/11/19 15:15:40;;;;;;;;;;;12.90;99.90;;;;;;21159325;27;19977;-87
2023/11/19 15:25:40;;;;;;;;;;;12.70;99.90;;;;;;21181388;27;20002;-87
2023/11/19 15:35:41;;;;;;;;;;;12.50;99.90;;;;;;21187607;27;19946;-85
2023/11/19 15:45:42;;;;;;;;;;;12.40;99.90;;;;;;21158113;27;19987;-86
2023/11/19 15:55:44;;;;;;;;;;;12.20;99.90;;;;;;21168050;27;19922;-87
2023/11/19 16:05:44;;;;;;;;;;;11.80;99.90;;;;;;21166247;27;19923;-87
2023/11/19 16:15:45;;;;;;;;;;;11.70;99.90;;;;;;21180965;27;19911;-87
2023/11/19 16:25:46;;;;;;;;;;;11.60;99.90;;;;;;21171619;27;19989;-86
2023/11/19 16:35:46;;;;;;;;;;;11.60;99.90;;;;;;21177572;27;20370;-86
2023/11/19 16:45:47;;;;;;;;;;;11.60;99.90;;;;;;21160950;27;19958;-88
2023/11/19 16:55:48;;;;;;;;;;;11.50;99.90;;;;;;21183353;27;19964;-88
2023/11/19 17:05:50;;;;;;;;;;;11.60;99.90;;;;;;21193379;27;20401;-89
2023/11/19 17:15:51;;;;;;;;;;;11.50;99.90;;;;;;21150106;27;19912;-89
2023/11/19 17:25:52;;;;;;;;;;;11.50;99.90;;;;;;21145802;27;19915;-90
2023/11/19 17:35:54;;;;;;;;;;;11.60;99.90;;;;;;21151024;27;19915;-89
2023/11/19 17:45:59;;;;;;;;;;;11.40;99.90;;;;;;21133247;27;19922;-89
2023/11/19 17:56:00;;;;;;;;;;;11.70;99.90;;;;;;21166746;27;19915;-89
2023/11/19 18:06:02;;;;;;;;;;;11.40;99.90;;;;;;21133715;27;19955;-89
2023/11/19 18:16:02;;;;;;;;;;;11.10;99.90;;;;;;21131405;27;20345;-89
2023/11/19 18:26:03;;;;;;;;;;;10.80;99.90;;;;;;21154944;27;20000;-90
2023/11/19 18:36:06;;;;;;;;;;;11.10;99.90;;;;;;21151004;27;20005;-89
2023/11/19 18:46:08;;;;;;;;;;;11.90;99.90;;;;;;21169931;27;19955;-89
2023/11/19 18:56:08;;;;;;;;;;;12.10;99.90;;;;;;21140719;28;20297;-89
2023/11/19 19:06:09;;;;;;;;;;;12.30;99.90;;;;;;21149480;28;20002;-89
2023/11/19 19:16:10;;;;;;;;;;;12.40;99.90;;;;;;21117374;28;19912;-88
2023/11/19 19:26:11;;;;;;;;;;;12.50;99.90;;;;;;21157102;28;19916;-87
2023/11/19 19:36:12;;;;;;;;;;;12.50;99.90;;;;;;21156098;27;19916;-87
2023/11/19 19:46:12;;;;;;;;;;;12.50;99.90;;;;;;21146243;28;19920;-88
2023/11/19 19:56:13;;;;;;;;;;;12.60;99.90;;;;;;21146798;27;20020;-88
2023/11/19 20:06:14;;;;;;;;;;;12.70;99.90;;;;;;21162072;27;19966;-88
2023/11/19 20:16:14;;;;;;;;;;;12.70;99.90;;;;;;21159773;27;20349;-86
2023/11/19 20:26:18;;;;;;;;;;;12.60;99.90;;;;;;21150691;27;20397;-88
2023/11/19 20:36:19;;;;;;;;;;;12.60;99.90;;;;;;21154814;27;20023;-87
2023/11/19 20:46:20;;;;;;;;;;;12.70;99.90;;;;;;21150802;27;19923;-89
2023/11/19 20:56:21;;;;;;;;;;;12.60;99.90;;;;;;21137062;27;19912;-88
2023/11/19 21:06:23;;;;;;;;;;;12.60;99.90;;;;;;21139550;27;19916;-88
2023/11/19 21:16:26;;;;;;;;;;;12.50;99.90;;;;;;21142755;27;19915;-89
2023/11/19 21:26:26;;;;;;;;;;;12.40;99.90;;;;;;21163026;27;20373;-88
2023/11/19 21:36:27;;;;;;;;;;;12.30;99.90;;;;;;21152958;27;19915;-88
2023/11/19 21:46:28;;;;;;;;;;;12.20;99.90;;;;;;21162666;27;19915;-90
2023/11/19 21:56:28;;;;;;;;;;;12.20;99.90;;;;;;21175163;27;19915;-88
2023/11/19 22:06:29;;;;;;;;;;;12.20;99.90;;;;;;21161043;27;19915;-88
2023/11/19 22:16:30;;;;;;;;;;;12.20;99.90;;;;;;21153138;27;20387;-88
2023/11/19 22:26:31;;;;;;;;;;;12.20;99.90;;;;;;21158818;27;19916;-87
2023/11/19 22:36:31;;;;;;;;;;;12.20;99.90;;;;;;21160097;27;19924;-89
2023/11/19 22:46:32;;;;;;;;;;;12.20;99.90;;;;;;21132578;27;19919;-86
2023/11/19 22:56:33;;;;;;;;;;;12.20;99.90;;;;;;21152226;28;20263;-87
2023/11/19 23:06:33;;;;;;;;;;;12.20;99.90;;;;;;21187838;28;19927;-87
2023/11/19 23:16:38;;;;;;;;;;;12.00;99.90;;;;;;21135815;28;19916;-87
2023/11/19 23:26:41;;;;;;;;;;;12.20;99.90;;;;;;21149632;27;19966;-90
2023/11/19 23:36:41;;;;;;;;;;;12.20;99.90;;;;;;21186594;27;20018;-89
2023/11/19 23:46:42;;;;;;;;;;;12.10;99.90;;;;;;21156494;27;19963;-89
2023/11/19 23:56:43;;;;;;;;;;;12.20;99.90;;;;;;21137683;27;19912;-90
